Maldives Meteorological Service

METAR

Station
VRMM
METAR VRMM 220200Z 20005KT 9999 FEW018TCU BKN120 29/26 Q1009 NOSIG=
VRMH
METAR VRMH 220200Z 00000KT 9999 FEW018 BKN260 28/26 Q1009=
VRMK
METAR VRMK 220200Z 21005KT 9999 FEW018TCU BKN130 28/25 Q1009=
VRMT
METAR VRMT 220200Z 23006KT 9999 SCT018 FEW019CB BKN260 28/25 Q1010 CB ENE,ESE,SSE=
VRMG
METAR VRMG 220200Z 26007KT 9999 FEW018TCU BKN260 28/25 Q1010 NOSIG=
Last Updated : 2018-04-22 07:00:14

SPECI

Station
VRMM
VRMH
VRMK
VRMT
VRMG
Last Updated : 2018-04-22 07:00:14